Time;durP1;ratioP1;P1;durP2;ratioP2;P2;SDS_P1;SDS_P2;PMS_P1;PMS_P2;Temp;Humidity;BMP_temperature;BMP_pressure;BME280_temperature;BME280_humidity;BME280_pressure;Samples;Min_cycle;Max_cycle;Signal;HPM_P1;HPM_P2
2022/06/06 00:00:40;;;;;;;2.45;1.30;;;16.80;99.90;;;;;;4995269;28;20190;-72
2022/06/06 00:03:06;;;;;;;1.40;1.40;;;16.90;99.90;;;;;;4996638;28;20180;-71
2022/06/06 00:05:33;;;;;;;3.35;1.50;;;16.90;99.90;;;;;;5001800;28;20204;-72
2022/06/06 00:07:59;;;;;;;1.40;1.30;;;16.90;99.90;;;;;;5004098;28;20180;-72
2022/06/06 00:10:25;;;;;;;1.73;1.20;;;16.90;99.90;;;;;;4995083;28;20546;-72
2022/06/06 00:12:51;;;;;;;1.55;1.45;;;16.90;99.90;;;;;;4992423;28;20176;-72
2022/06/06 00:15:18;;;;;;;1.40;1.30;;;16.90;99.90;;;;;;4993887;28;20258;-72
2022/06/06 00:17:43;;;;;;;1.60;1.50;;;16.90;99.90;;;;;;4990569;28;20277;-72
2022/06/06 00:20:10;;;;;;;4.43;1.60;;;16.80;99.90;;;;;;4990393;28;20185;-72
2022/06/06 00:22:35;;;;;;;2.28;1.45;;;16.70;99.90;;;;;;4992831;28;20188;-72
2022/06/06 00:25:01;;;;;;;4.55;1.60;;;16.60;99.90;;;;;;4990825;28;20223;-71
2022/06/06 00:27:26;;;;;;;1.63;1.58;;;16.50;99.90;;;;;;4992425;28;20291;-72
2022/06/06 00:29:53;;;;;;;4.30;1.52;;;16.40;99.90;;;;;;4992143;28;20181;-72
2022/06/06 00:35:08;;;;;;;2.35;1.77;;;16.40;99.90;;;;;;4994508;28;20233;-73
2022/06/06 00:37:35;;;;;;;3.40;1.58;;;16.30;99.90;;;;;;4993043;28;20180;-72
2022/06/06 00:40:03;;;;;;;1.60;1.50;;;16.20;99.90;;;;;;4989573;28;20184;-73
2022/06/06 00:42:34;;;;;;;1.80;1.70;;;16.10;99.90;;;;;;4992688;28;20211;-73
2022/06/06 00:45:27;;;;;;;1.60;1.50;;;16.00;99.90;;;;;;4994313;28;20219;-72
2022/06/06 00:48:19;;;;;;;5.07;1.55;;;15.90;99.90;;;;;;4991019;28;20188;-72
2022/06/06 00:51:03;;;;;;;2.38;1.60;;;15.80;99.90;;;;;;4996371;28;20203;-73
2022/06/06 00:53:54;;;;;;;1.95;1.70;;;15.80;99.90;;;;;;4992219;28;20269;-73
2022/06/06 00:56:35;;;;;;;2.92;1.73;;;15.70;99.90;;;;;;4992735;28;20212;-73
2022/06/06 00:59:11;;;;;;;2.72;1.80;;;15.70;99.90;;;;;;4990490;28;20192;-73
2022/06/06 01:01:38;;;;;;;4.50;2.00;;;15.70;99.90;;;;;;4988972;28;20642;-73
2022/06/06 01:04:05;;;;;;;2.08;1.70;;;15.80;99.90;;;;;;4990694;28;20698;-73
2022/06/06 01:06:34;;;;;;;3.03;1.60;;;15.80;99.90;;;;;;4991100;28;20180;-73
2022/06/06 01:09:01;;;;;;;2.15;1.60;;;15.80;99.90;;;;;;4992589;28;20191;-72
2022/06/06 01:11:27;;;;;;;3.22;1.80;;;15.80;99.90;;;;;;4992917;28;20172;-72
2022/06/06 01:13:54;;;;;;;2.45;1.67;;;15.60;99.90;;;;;;4991669;28;20211;-73
2022/06/06 01:16:20;;;;;;;2.40;1.88;;;15.60;99.90;;;;;;4991934;28;20207;-73
2022/06/06 01:18:57;;;;;;;2.00;1.90;;;15.50;99.90;;;;;;4988975;28;20192;-72
2022/06/06 01:21:55;;;;;;;2.35;1.70;;;15.50;99.90;;;;;;4989732;28;20271;-73
2022/06/06 01:24:42;;;;;;;1.90;1.80;;;15.40;99.90;;;;;;4988449;28;20840;-73
2022/06/06 01:27:29;;;;;;;2.67;1.88;;;15.30;99.90;;;;;;4992110;28;20181;-72
2022/06/06 01:30:05;;;;;;;2.85;2.00;;;15.20;99.90;;;;;;4990609;28;20165;-73
2022/06/06 01:32:41;;;;;;;2.80;2.10;;;15.20;99.90;;;;;;4990665;28;20168;-72
2022/06/06 01:35:08;;;;;;;2.10;2.00;;;15.20;99.90;;;;;;4990409;28;20204;-73
2022/06/06 01:37:41;;;;;;;2.30;2.10;;;15.20;99.90;;;;;;4989247;28;20192;-72
2022/06/06 01:40:13;;;;;;;2.72;1.80;;;15.20;99.90;;;;;;4989033;28;20220;-73
2022/06/06 01:43:11;;;;;;;1.95;1.85;;;15.20;99.90;;;;;;4990026;28;20179;-72
2022/06/06 01:45:49;;;;;;;2.25;1.92;;;15.20;99.90;;;;;;4989229;28;20229;-72
2022/06/06 01:48:23;;;;;;;2.60;1.88;;;15.20;99.90;;;;;;4989270;28;20175;-72
2022/06/06 01:50:50;;;;;;;3.80;2.25;;;15.20;99.90;;;;;;4992422;28;20252;-72
2022/06/06 01:53:23;;;;;;;2.78;1.95;;;15.20;99.90;;;;;;4991186;28;20216;-73
2022/06/06 01:55:51;;;;;;;2.92;1.90;;;15.20;99.90;;;;;;4992408;28;20192;-72
2022/06/06 01:58:24;;;;;;;1.98;1.88;;;15.10;99.90;;;;;;4991054;28;20184;-72
2022/06/06 02:00:51;;;;;;;3.17;1.98;;;15.00;99.90;;;;;;4992258;28;20183;-72
2022/06/06 02:03:17;;;;;;;2.55;2.10;;;14.90;99.90;;;;;;4991630;28;20177;-72
2022/06/06 02:05:42;;;;;;;3.58;2.10;;;14.80;99.90;;;;;;4990903;28;20201;-72
2022/06/06 02:08:09;;;;;;;3.60;2.00;;;14.80;99.90;;;;;;4991682;28;20173;-72
2022/06/06 02:10:35;;;;;;;2.17;2.08;;;14.80;99.90;;;;;;4990863;28;20191;-72
2022/06/06 02:13:01;;;;;;;2.78;2.30;;;14.70;99.90;;;;;;4990803;28;20176;-72
2022/06/06 02:15:27;;;;;;;2.95;2.38;;;14.70;99.90;;;;;;4990731;28;20203;-72
2022/06/06 02:17:54;;;;;;;3.53;2.10;;;14.60;99.90;;;;;;4990742;28;20270;-72
2022/06/06 02:20:23;;;;;;;2.30;2.20;;;14.60;99.90;;;;;;4990685;28;20207;-72
2022/06/06 02:22:49;;;;;;;2.33;2.13;;;14.70;99.90;;;;;;4991868;28;20180;-72
2022/06/06 02:25:15;;;;;;;3.72;2.35;;;14.60;99.90;;;;;;4991403;28;20242;-72
2022/06/06 02:27:42;;;;;;;3.50;2.08;;;14.70;99.90;;;;;;4990554;28;20176;-72
2022/06/06 02:30:11;;;;;;;2.90;2.40;;;14.80;99.90;;;;;;4991972;28;20184;-72
2022/06/06 02:32:37;;;;;;;7.50;2.38;;;14.70;99.90;;;;;;4991716;28;20198;-72
2022/06/06 02:35:03;;;;;;;2.17;2.03;;;14.70;99.90;;;;;;4990345;28;20204;-72
2022/06/06 02:37:29;;;;;;;2.60;2.22;;;14.80;99.90;;;;;;4991204;28;20230;-72
2022/06/06 02:39:55;;;;;;;2.67;2.30;;;14.70;99.90;;;;;;4990379;28;20184;-72
2022/06/06 02:42:21;;;;;;;2.47;2.20;;;14.70;99.90;;;;;;4991839;28;20175;-72
2022/06/06 02:44:48;;;;;;;2.63;2.42;;;14.80;99.90;;;;;;4991029;28;20212;-72
2022/06/06 02:47:14;;;;;;;3.58;2.17;;;15.00;99.90;;;;;;4990647;28;20183;-72
2022/06/06 02:49:39;;;;;;;2.40;2.00;;;15.10;99.90;;;;;;4991781;28;20183;-72
2022/06/06 02:52:06;;;;;;;8.32;2.20;;;15.20;99.90;;;;;;4990264;28;20177;-72
2022/06/06 02:54:32;;;;;;;2.90;2.20;;;15.40;99.90;;;;;;4990379;28;20204;-72
2022/06/06 02:57:03;;;;;;;2.17;2.00;;;15.50;99.90;;;;;;4990173;28;20604;-72
2022/06/06 02:59:31;;;;;;;2.47;2.10;;;15.60;99.90;;;;;;4990186;28;20180;-72
2022/06/06 03:01:57;;;;;;;2.35;2.15;;;15.60;99.90;;;;;;4989909;28;20181;-72
2022/06/06 03:04:22;;;;;;;3.33;2.25;;;15.70;99.90;;;;;;4989942;28;20272;-72
2022/06/06 03:07:18;;;;;;;2.95;2.10;;;15.70;99.90;;;;;;4990866;28;20172;-72
2022/06/06 03:09:56;;;;;;;2.40;2.17;;;15.80;99.90;;;;;;4991130;28;20229;-72
2022/06/06 03:12:34;;;;;;;4.55;2.25;;;15.80;99.90;;;;;;4989959;28;20214;-72
2022/06/06 03:15:23;;;;;;;2.20;2.00;;;15.80;99.90;;;;;;4990552;28;20237;-72
2022/06/06 03:21:31;;;;;;;3.47;2.20;;;15.80;99.90;;;;;;4991232;28;20202;-72
2022/06/06 03:24:31;;;;;;;2.65;2.25;;;15.70;99.90;;;;;;4991440;28;20238;-72
2022/06/06 03:27:24;;;;;;;2.10;2.00;;;15.50;99.90;;;;;;5011742;28;20646;-72
2022/06/06 03:30:05;;;;;;;5.90;2.50;;;15.50;99.90;;;;;;4990633;28;20180;-72
2022/06/06 03:32:39;;;;;;;2.95;2.53;;;15.50;99.90;;;;;;4990619;28;20173;-72
2022/06/06 03:35:32;;;;;;;2.67;1.98;;;15.60;99.90;;;;;;4989942;28;20564;-72
2022/06/06 03:38:12;;;;;;;2.85;2.28;;;15.70;99.90;;;;;;4990305;28;20207;-72
2022/06/06 03:41:21;;;;;;;5.68;2.30;;;15.80;99.90;;;;;;4990684;28;20239;-72
2022/06/06 03:44:31;;;;;;;3.33;2.50;;;15.70;99.90;;;;;;4989880;28;20706;-72
2022/06/06 03:47:24;;;;;;;2.40;2.20;;;15.80;99.90;;;;;;4991578;28;20203;-72
2022/06/06 03:50:06;;;;;;;2.55;2.42;;;15.70;99.90;;;;;;4990879;28;20169;-73
2022/06/06 03:52:55;;;;;;;6.13;2.65;;;15.80;99.90;;;;;;4989766;28;20195;-72
2022/06/06 03:55:39;;;;;;;3.22;2.70;;;15.80;99.90;;;;;;4990994;28;20200;-72
2022/06/06 03:58:05;;;;;;;2.63;2.42;;;15.80;99.90;;;;;;4989379;28;20226;-72
2022/06/06 04:00:33;;;;;;;3.00;2.53;;;15.90;99.90;;;;;;4989492;28;20191;-72
2022/06/06 04:03:00;;;;;;;3.35;2.42;;;16.10;99.90;;;;;;4990650;28;20177;-72
2022/06/06 04:05:27;;;;;;;4.97;2.97;;;16.20;99.90;;;;;;4989393;28;20208;-72
2022/06/06 04:07:52;;;;;;;2.60;2.40;;;16.30;99.90;;;;;;4990468;28;20188;-72
2022/06/06 04:10:18;;;;;;;2.60;2.40;;;16.30;99.90;;;;;;4989281;28;20191;-72
2022/06/06 04:12:46;;;;;;;3.25;2.42;;;16.40;99.90;;;;;;4990088;28;20272;-72
2022/06/06 04:15:36;;;;;;;3.92;2.78;;;16.40;99.90;;;;;;4992774;28;20201;-73
2022/06/06 04:18:18;;;;;;;5.60;3.20;;;16.40;99.90;;;;;;4993959;28;20265;-73
2022/06/06 04:21:24;;;;;;;5.80;3.22;;;16.40;99.90;;;;;;4994006;28;20510;-73
2022/06/06 04:24:10;;;;;;;3.08;2.72;;;16.40;99.90;;;;;;4992317;28;20219;-73
2022/06/06 04:26:44;;;;;;;3.20;2.90;;;16.30;99.90;;;;;;4993281;28;20237;-73
2022/06/06 04:29:15;;;;;;;2.97;2.75;;;16.40;99.90;;;;;;4992463;28;20184;-73
2022/06/06 04:31:49;;;;;;;4.53;2.80;;;16.40;99.90;;;;;;4993644;28;20161;-73
2022/06/06 04:34:44;;;;;;;4.32;2.60;;;16.60;99.90;;;;;;4993534;28;20235;-73
2022/06/06 04:37:28;;;;;;;3.15;2.83;;;16.70;99.90;;;;;;4993762;28;20204;-73
2022/06/06 04:40:12;;;;;;;5.20;3.17;;;16.80;99.90;;;;;;4993147;28;20520;-73
2022/06/06 04:42:56;;;;;;;2.50;2.40;;;16.80;99.90;;;;;;4992278;28;20191;-73
2022/06/06 04:45:35;;;;;;;3.78;3.00;;;16.80;99.90;;;;;;4993265;28;20804;-73
2022/06/06 04:48:04;;;;;;;3.10;2.80;;;16.80;99.90;;;;;;4992465;28;20700;-73
2022/06/06 04:50:31;;;;;;;3.30;3.00;;;16.80;99.90;;;;;;4992044;28;20216;-73
2022/06/06 04:53:03;;;;;;;4.70;3.15;;;16.80;99.90;;;;;;4993583;28;20203;-72
2022/06/06 04:55:32;;;;;;;4.13;2.97;;;16.80;99.90;;;;;;4992041;28;20204;-72
2022/06/06 04:58:01;;;;;;;3.28;3.00;;;16.90;99.90;;;;;;4992093;28;20184;-72
2022/06/06 05:00:27;;;;;;;3.60;3.30;;;17.00;99.90;;;;;;4992214;28;20229;-73
2022/06/06 05:02:52;;;;;;;4.45;3.15;;;17.00;99.90;;;;;;4992381;28;20176;-73
2022/06/06 05:05:18;;;;;;;7.53;3.65;;;17.10;99.90;;;;;;4991958;28;20235;-73
2022/06/06 05:08:03;;;;;;;5.20;3.30;;;17.10;99.90;;;;;;4992167;28;20184;-73
2022/06/06 05:10:41;;;;;;;3.83;3.40;;;17.30;99.90;;;;;;4993019;28;20156;-73
2022/06/06 05:13:13;;;;;;;3.92;3.55;;;17.30;99.90;;;;;;4992308;28;20219;-73
2022/06/06 05:16:03;;;;;;;4.47;3.65;;;17.50;99.90;;;;;;4991666;28;20176;-73
2022/06/06 05:19:00;;;;;;;5.32;3.70;;;17.30;99.90;;;;;;4992458;28;20184;-73
2022/06/06 05:21:50;;;;;;;4.70;3.72;;;17.40;99.90;;;;;;4991912;28;20180;-73
2022/06/06 05:24:33;;;;;;;4.18;3.70;;;17.40;99.90;;;;;;4992228;28;20216;-73
2022/06/06 05:27:25;;;;;;;5.30;4.10;;;17.50;99.90;;;;;;4992978;28;20168;-73
2022/06/06 05:30:06;;;;;;;4.95;4.13;;;17.60;99.90;;;;;;5015464;28;20276;-73
2022/06/06 05:32:37;;;;;;;5.32;3.95;;;17.80;99.90;;;;;;4992622;28;20172;-73
2022/06/06 05:35:24;;;;;;;5.65;4.10;;;17.90;99.90;;;;;;4992595;28;20208;-73
2022/06/06 05:38:05;;;;;;;4.50;4.10;;;17.90;99.90;;;;;;4992853;28;20196;-71
2022/06/06 05:40:41;;;;;;;4.57;4.18;;;18.00;99.90;;;;;;4994000;28;20183;-72
2022/06/06 05:43:25;;;;;;;4.40;3.95;;;18.00;99.90;;;;;;4991844;28;20180;-72
2022/06/06 05:45:53;;;;;;;5.03;4.13;;;18.10;99.90;;;;;;4992116;28;20180;-72
2022/06/06 05:48:24;;;;;;;7.35;4.28;;;18.30;99.90;;;;;;4992597;28;20184;-74
2022/06/06 05:50:59;;;;;;;6.95;4.25;;;18.40;99.90;;;;;;4992771;28;20167;-72
2022/06/06 05:53:46;;;;;;;5.85;4.38;;;18.50;99.90;;;;;;4991580;28;20190;-72
2022/06/06 05:56:32;;;;;;;4.15;3.83;;;18.60;99.90;;;;;;4992248;28;20269;-72
2022/06/06 05:59:16;;;;;;;4.90;3.80;;;18.70;99.90;;;;;;4991069;28;20180;-72
2022/06/06 06:01:54;;;;;;;4.57;4.07;;;18.80;99.90;;;;;;4991057;28;20172;-74
2022/06/06 06:04:40;;;;;;;5.47;3.95;;;18.90;99.90;;;;;;4990977;28;20234;-73
2022/06/06 06:07:43;;;;;;;4.05;3.72;;;19.20;99.90;;;;;;5001971;28;20196;-73
2022/06/06 06:10:28;;;;;;;4.78;4.03;;;19.40;99.90;;;;;;4996168;28;20183;-73
2022/06/06 06:13:06;;;;;;;6.90;4.57;;;19.60;99.90;;;;;;4994165;28;20229;-72
2022/06/06 06:15:37;;;;;;;7.25;4.10;;;19.90;99.90;;;;;;4994625;28;20325;-72
2022/06/06 06:18:09;;;;;;;4.70;4.20;;;20.40;99.90;;;;;;4992771;28;20258;-72
2022/06/06 06:20:43;;;;;;;3.85;3.50;;;21.20;99.90;;;;;;4992903;28;20222;-72
2022/06/06 06:23:14;;;;;;;8.82;3.42;;;22.30;99.90;;;;;;4993381;28;20179;-71
2022/06/06 06:25:40;;;;;;;4.10;3.28;;;23.30;98.00;;;;;;4992544;28;20639;-73
2022/06/06 06:28:10;;;;;;;5.63;3.28;;;24.40;94.20;;;;;;4995776;28;20242;-73
2022/06/06 06:31:05;;;;;;;3.60;3.30;;;25.30;88.60;;;;;;4991925;28;20268;-72
2022/06/06 06:33:47;;;;;;;5.13;3.20;;;25.40;85.00;;;;;;4990488;28;20172;-72
2022/06/06 06:36:30;;;;;;;3.20;2.90;;;25.30;82.20;;;;;;4990347;28;20270;-72
2022/06/06 06:39:26;;;;;;;4.10;3.00;;;25.00;81.30;;;;;;4990851;28;20198;-71
2022/06/06 06:42:12;;;;;;;3.20;2.95;;;24.70;80.20;;;;;;4993713;28;20188;-72
2022/06/06 06:44:45;;;;;;;3.50;3.20;;;24.30;79.70;;;;;;4990924;28;20694;-73
2022/06/06 06:47:20;;;;;;;2.92;2.72;;;24.10;81.40;;;;;;4991420;28;20179;-73
2022/06/06 06:50:21;;;;;;;2.97;2.78;;;24.10;82.20;;;;;;4992149;28;20239;-73
2022/06/06 06:53:10;;;;;;;5.00;3.20;;;23.70;82.30;;;;;;4987415;28;20184;-73
2022/06/06 06:56:18;;;;;;;3.90;3.50;;;23.30;84.70;;;;;;4991361;28;20258;-73
2022/06/06 06:58:54;;;;;;;3.25;3.00;;;22.90;87.60;;;;;;4990180;28;20175;-73
2022/06/06 07:08:32;;;;;;;3.97;3.40;;;22.70;89.10;;;;;;4990623;28;20572;-72
2022/06/06 07:10:44;;;;;;;3.58;3.28;;;22.00;92.60;;;;;;4991797;28;20203;-73
2022/06/06 07:13:16;;;;;;;5.30;3.22;;;22.00;92.20;;;;;;4990949;28;20167;-72
2022/06/06 07:15:58;;;;;;;4.03;3.63;;;21.90;92.90;;;;;;4990306;28;20191;-72
2022/06/06 07:18:30;;;;;;;5.03;3.75;;;22.10;92.90;;;;;;4990916;28;20188;-73
2022/06/06 07:20:58;;;;;;;3.60;3.30;;;22.20;91.80;;;;;;4990740;28;20173;-73
2022/06/06 07:23:25;;;;;;;4.80;3.33;;;22.50;91.80;;;;;;4989967;28;20206;-73
2022/06/06 07:25:53;;;;;;;3.90;3.55;;;22.60;91.10;;;;;;4990030;28;20206;-73
2022/06/06 07:28:22;;;;;;;5.07;4.30;;;22.40;91.30;;;;;;4991021;28;20681;-73
2022/06/06 07:31:15;;;;;;;9.32;8.50;;;22.20;91.40;;;;;;4990029;28;20180;-73
2022/06/06 07:34:02;;;;;;;6.95;6.35;;;21.80;92.60;;;;;;4989781;28;20746;-73
2022/06/06 07:36:59;;;;;;;4.43;3.45;;;21.80;93.60;;;;;;4990035;28;20176;-73
2022/06/06 07:40:03;;;;;;;3.92;3.55;;;21.90;92.40;;;;;;4991185;28;20572;-72
2022/06/06 07:43:12;;;;;;;4.43;3.22;;;22.00;91.40;;;;;;4977381;28;20184;-72
2022/06/06 07:45:54;;;;;;;3.70;3.40;;;22.00;91.60;;;;;;4989619;28;20200;-72
2022/06/06 07:48:38;;;;;;;3.83;3.20;;;21.90;91.50;;;;;;4993972;28;20172;-72
2022/06/06 07:51:24;;;;;;;4.00;3.28;;;21.90;91.20;;;;;;4993025;28;20249;-72
2022/06/06 07:54:27;;;;;;;3.47;3.17;;;22.00;90.60;;;;;;4993234;28;20296;-71
2022/06/06 07:57:16;;;;;;;3.22;2.97;;;21.90;91.10;;;;;;4994570;28;20215;-76
2022/06/06 08:00:17;;;;;;;4.45;3.10;;;22.10;91.80;;;;;;4994270;28;20169;-73
2022/06/06 08:03:16;;;;;;;3.20;3.00;;;22.70;90.40;;;;;;4988447;28;20294;-73
2022/06/06 08:05:44;;;;;;;3.33;3.03;;;23.10;88.40;;;;;;4994549;28;20541;-73
2022/06/06 08:08:16;;;;;;;3.65;3.35;;;23.20;86.10;;;;;;4993394;28;20184;-73
2022/06/06 08:10:44;;;;;;;3.63;3.22;;;23.00;84.90;;;;;;4993511;28;20236;-73
2022/06/06 08:13:39;;;;;;;3.75;3.35;;;23.00;84.90;;;;;;4993126;28;20626;-73
2022/06/06 08:16:18;;;;;;;2.85;2.65;;;23.30;85.40;;;;;;4994366;28;20180;-73
2022/06/06 08:19:16;;;;;;;3.05;2.85;;;23.60;82.00;;;;;;4993646;28;20542;-73
2022/06/06 08:21:46;;;;;;;3.17;2.88;;;23.90;82.90;;;;;;4993378;28;20211;-74
2022/06/06 08:24:33;;;;;;;3.35;3.05;;;24.10;81.90;;;;;;4993087;28;20298;-73
2022/06/06 08:27:03;;;;;;;4.32;3.20;;;24.40;80.50;;;;;;4993155;28;20207;-73
2022/06/06 08:29:34;;;;;;;3.10;2.80;;;24.80;79.30;;;;;;4993857;28;20259;-73
2022/06/06 08:31:59;;;;;;;2.90;2.70;;;24.90;76.70;;;;;;4994690;28;20172;-73
2022/06/06 08:34:25;;;;;;;5.72;2.92;;;24.70;78.40;;;;;;4994318;28;20638;-73
2022/06/06 08:37:18;;;;;;;4.03;2.88;;;24.50;78.40;;;;;;4992799;28;20263;-75
2022/06/06 08:40:09;;;;;;;3.25;2.95;;;24.40;78.30;;;;;;4993137;28;20280;-72
2022/06/06 08:42:49;;;;;;;2.85;2.65;;;24.20;78.20;;;;;;4992450;28;20195;-72
2022/06/06 08:45:57;;;;;;;3.30;3.00;;;23.90;78.70;;;;;;4992209;28;20218;-73
2022/06/06 08:48:51;;;;;;;3.63;3.33;;;23.70;79.10;;;;;;4984222;28;20188;-73
2022/06/06 08:51:47;;;;;;;3.50;3.20;;;23.40;81.90;;;;;;4992188;28;20647;-73
2022/06/06 09:01:03;;;;;;;3.50;3.20;;;23.60;83.70;;;;;;4993943;28;20266;-73
2022/06/06 09:04:08;;;;;;;3.90;3.03;;;24.20;81.60;;;;;;4992244;28;20177;-74
2022/06/06 09:06:56;;;;;;;5.93;3.10;;;24.60;81.20;;;;;;4992846;28;20663;-73
2022/06/06 09:09:58;;;;;;;4.35;2.90;;;24.80;79.00;;;;;;4992964;28;20192;-74
2022/06/06 09:13:15;;;;;;;3.35;3.05;;;24.80;78.70;;;;;;4991718;28;20663;-74
2022/06/06 09:15:52;;;;;;;3.35;3.05;;;24.90;77.20;;;;;;4991621;28;20624;-75
2022/06/06 09:21:52;;;;;;;3.55;3.25;;;24.70;76.00;;;;;;4993379;28;20210;-73
2022/06/06 09:24:38;;;;;;;3.40;3.20;;;24.60;77.70;;;;;;4992821;28;20200;-73
2022/06/06 09:27:47;;;;;;;3.80;3.33;;;24.40;80.10;;;;;;4991851;28;20172;-72
2022/06/06 09:30:52;;;;;;;4.75;3.25;;;24.40;80.80;;;;;;4992095;28;20172;-72
2022/06/06 09:33:58;;;;;;;4.82;3.50;;;24.50;80.70;;;;;;4981156;28;20666;-72
2022/06/06 09:36:47;;;;;;;3.60;3.30;;;24.90;78.80;;;;;;4992695;28;20184;-72
2022/06/06 09:39:54;;;;;;;6.93;3.70;;;25.20;77.40;;;;;;4992872;28;20196;-72
2022/06/06 09:42:44;;;;;;;5.90;3.30;;;24.90;76.60;;;;;;4991898;28;20183;-73
2022/06/06 09:45:29;;;;;;;4.32;3.20;;;24.70;79.60;;;;;;4992794;28;20220;-74
2022/06/06 09:48:03;;;;;;;3.50;3.15;;;24.50;78.20;;;;;;4992571;28;20168;-74
2022/06/06 09:50:46;;;;;;;3.70;3.20;;;24.50;79.20;;;;;;4993027;28;20694;-73
2022/06/06 09:59:01;;;;;;;3.20;2.90;;;24.40;79.10;;;;;;4991639;28;20683;-73
2022/06/06 09:59:42;;;;;;;3.25;2.95;;;24.30;79.50;;;;;;4992428;28;21116;-74
2022/06/06 10:02:46;;;;;;;6.30;3.47;;;24.30;80.10;;;;;;4992566;28;20161;-71
2022/06/06 10:05:36;;;;;;;3.65;3.35;;;24.30;80.60;;;;;;4991330;28;20246;-72
2022/06/06 10:08:35;;;;;;;4.22;3.90;;;24.10;79.50;;;;;;4992781;28;20172;-73
2022/06/06 10:11:22;;;;;;;6.47;3.55;;;24.00;81.00;;;;;;4991423;28;20210;-73
2022/06/06 10:14:20;;;;;;;5.07;3.65;;;24.20;81.90;;;;;;4991205;28;20200;-73
2022/06/06 10:17:11;;;;;;;4.28;3.50;;;24.40;78.90;;;;;;4992293;28;20701;-73
2022/06/06 10:20:02;;;;;;;4.53;3.60;;;25.00;77.40;;;;;;4992898;28;20179;-73
2022/06/06 10:22:38;;;;;;;5.18;3.47;;;25.50;76.30;;;;;;4992147;28;20217;-73
2022/06/06 10:25:20;;;;;;;3.42;2.80;;;25.50;73.40;;;;;;4991027;28;20211;-74
2022/06/06 10:27:48;;;;;;;4.13;3.15;;;25.40;72.60;;;;;;4991682;28;20165;-74
2022/06/06 10:33:36;;;;;;;5.13;2.70;;;25.30;72.60;;;;;;4992120;28;20194;-73
2022/06/06 10:36:11;;;;;;;2.58;2.38;;;25.50;72.60;;;;;;4991047;28;20267;-73
2022/06/06 10:39:15;;;;;;;6.18;2.50;;;25.40;68.90;;;;;;4991115;28;20525;-73
2022/06/06 10:42:03;;;;;;;7.78;2.50;;;25.00;68.90;;;;;;4991467;28;20172;-74
2022/06/06 10:45:23;;;;;;;5.10;2.40;;;24.70;69.80;;;;;;4982032;28;20219;-73
2022/06/06 10:51:49;;;;;;;2.83;2.63;;;24.40;71.60;;;;;;4992243;28;20210;-73
2022/06/06 10:54:56;;;;;;;3.63;2.15;;;25.00;72.80;;;;;;4991639;28;20200;-73
2022/06/06 10:57:52;;;;;;;2.60;2.40;;;25.10;69.10;;;;;;4991719;28;20176;-74
2022/06/06 11:00:40;;;;;;;5.20;2.35;;;24.90;71.90;;;;;;4990454;28;20259;-74
2022/06/06 11:07:06;;;;;;;64.15;3.88;;;23.90;74.70;;;;;;4992008;28;20207;-74
2022/06/06 11:09:45;;;;;;;15.50;3.97;;;22.60;86.20;;;;;;4990420;28;20180;-73
2022/06/06 11:12:38;;;;;;;10.25;3.22;;;20.20;97.90;;;;;;4991910;28;20167;-73
2022/06/06 11:15:04;;;;;;;4.78;3.28;;;19.00;99.90;;;;;;4989976;28;20245;-72
2022/06/06 11:17:32;;;;;;;2.70;2.50;;;18.30;99.90;;;;;;4989877;28;20192;-71
2022/06/06 11:20:22;;;;;;;2.75;2.55;;;17.90;99.90;;;;;;4991107;28;20624;-72
2022/06/06 11:22:51;;;;;;;4.40;2.55;;;17.80;99.90;;;;;;4993469;28;20169;-71
2022/06/06 11:25:19;;;;;;;6.20;3.10;;;17.80;99.90;;;;;;4993848;28;20196;-72
2022/06/06 11:28:11;;;;;;;3.55;2.70;;;17.90;99.90;;;;;;4994104;28;20198;-71
2022/06/06 11:30:55;;;;;;;3.85;3.00;;;17.90;99.90;;;;;;4994478;28;20206;-71
2022/06/06 11:33:39;;;;;;;3.03;2.70;;;18.00;99.90;;;;;;4994516;28;20538;-72
2022/06/06 11:36:52;;;;;;;3.25;2.80;;;18.40;99.90;;;;;;4994395;28;20173;-72
2022/06/06 11:39:56;;;;;;;3.38;3.00;;;18.70;99.90;;;;;;4953665;28;20173;-72
2022/06/06 11:42:59;;;;;;;3.20;2.80;;;19.30;99.90;;;;;;4973807;28;20180;-73
2022/06/06 11:46:02;;;;;;;4.65;2.05;;;19.70;99.90;;;;;;4960891;28;20724;-72
2022/06/06 11:48:46;;;;;;;2.20;2.10;;;19.90;99.90;;;;;;4992997;28;20192;-72
2022/06/06 11:51:38;;;;;;;3.78;2.10;;;20.10;99.90;;;;;;4994327;28;20222;-72
2022/06/06 11:54:41;;;;;;;4.35;1.80;;;20.30;99.90;;;;;;4994269;28;20228;-72
2022/06/06 11:57:06;;;;;;;4.70;1.90;;;20.30;99.90;;;;;;4994759;28;20603;-72
2022/06/06 12:00:00;;;;;;;2.97;1.83;;;20.30;99.90;;;;;;4994362;28;20206;-72
2022/06/06 12:03:03;;;;;;;3.42;2.10;;;20.30;99.90;;;;;;4992914;28;20169;-72
2022/06/06 12:05:57;;;;;;;2.03;1.88;;;20.10;99.90;;;;;;4994123;28;20204;-72
2022/06/06 12:08:49;;;;;;;1.90;1.67;;;20.00;99.90;;;;;;4992854;28;20169;-72
2022/06/06 12:11:30;;;;;;;1.63;1.52;;;19.90;99.90;;;;;;4993935;28;20647;-72
2022/06/06 12:13:55;;;;;;;2.70;1.63;;;19.90;99.90;;;;;;4992602;28;20603;-72
2022/06/06 12:16:29;;;;;;;1.70;1.60;;;19.90;99.90;;;;;;4992564;28;20287;-72
2022/06/06 12:19:03;;;;;;;2.33;1.70;;;19.70;99.90;;;;;;4993471;28;20184;-72
2022/06/06 12:21:48;;;;;;;2.42;1.60;;;19.70;99.90;;;;;;4992519;28;20624;-72
2022/06/06 12:24:25;;;;;;;2.42;1.60;;;19.80;99.90;;;;;;4992407;28;20211;-72
2022/06/06 12:27:11;;;;;;;2.10;1.80;;;19.90;99.90;;;;;;4992728;28;20203;-72
2022/06/06 12:30:07;;;;;;;3.90;1.50;;;20.00;99.90;;;;;;4992973;28;20176;-72
2022/06/06 12:32:58;;;;;;;2.17;1.70;;;19.90;99.90;;;;;;4993826;28;20237;-72
2022/06/06 12:35:52;;;;;;;4.15;1.60;;;20.30;99.90;;;;;;4993072;28;20193;-72
2022/06/06 12:38:32;;;;;;;1.83;1.73;;;20.40;99.90;;;;;;4992995;28;20180;-72
2022/06/06 12:41:03;;;;;;;3.33;1.48;;;20.80;99.90;;;;;;4993103;28;20172;-72
2022/06/06 12:43:50;;;;;;;1.70;1.40;;;21.00;99.90;;;;;;4993292;28;20535;-72
2022/06/06 12:46:35;;;;;;;1.50;1.30;;;21.30;99.90;;;;;;4993666;28;20165;-72
2022/06/06 12:49:11;;;;;;;1.52;1.42;;;21.60;99.90;;;;;;4992470;28;20300;-72
2022/06/06 12:51:55;;;;;;;3.33;1.50;;;21.90;97.00;;;;;;4993268;28;20176;-72
2022/06/06 12:58:01;;;;;;;1.55;1.45;;;22.50;95.70;;;;;;4993795;28;20175;-72
2022/06/06 13:03:49;;;;;;;1.80;1.70;;;23.00;92.10;;;;;;4993595;28;20538;-72
2022/06/06 13:06:38;;;;;;;1.73;1.63;;;22.70;90.60;;;;;;4993122;28;20160;-72
2022/06/06 13:09:33;;;;;;;1.58;1.58;;;22.40;90.40;;;;;;4991910;28;20819;-72
2022/06/06 13:12:19;;;;;;;1.60;1.50;;;22.30;91.60;;;;;;4991863;28;20275;-72
2022/06/06 13:14:58;;;;;;;1.92;1.77;;;22.00;90.20;;;;;;4972535;28;20212;-72
2022/06/06 13:17:59;;;;;;;1.60;1.50;;;21.90;91.60;;;;;;4991996;28;20195;-72
2022/06/06 13:20:39;;;;;;;3.40;1.77;;;21.90;91.30;;;;;;4985544;28;20196;-72
2022/06/06 13:23:37;;;;;;;1.90;1.60;;;22.00;92.50;;;;;;4991944;28;20658;-72
2022/06/06 13:26:47;;;;;;;1.42;1.35;;;22.00;90.70;;;;;;4991583;28;20219;-72
2022/06/06 13:29:27;;;;;;;1.67;1.58;;;22.30;90.20;;;;;;4991549;28;20176;-72
2022/06/06 13:32:09;;;;;;;1.67;1.60;;;22.90;89.70;;;;;;4991508;28;20317;-72
2022/06/06 13:34:56;;;;;;;1.95;1.58;;;23.30;87.80;;;;;;4992866;28;20221;-73
2022/06/06 13:37:47;;;;;;;3.83;1.60;;;23.60;86.60;;;;;;4991485;28;20238;-73
2022/06/06 13:40:41;;;;;;;1.58;1.48;;;23.60;84.30;;;;;;4991386;28;20173;-73
2022/06/06 13:43:41;;;;;;;2.35;1.60;;;23.50;83.50;;;;;;4991482;28;20175;-73
2022/06/06 13:46:26;;;;;;;2.45;1.80;;;23.70;85.30;;;;;;4991889;28;20190;-73
2022/06/06 13:49:13;;;;;;;4.18;1.67;;;23.90;86.50;;;;;;4991572;28;20181;-73
2022/06/06 13:52:01;;;;;;;1.70;1.45;;;24.00;84.50;;;;;;4992096;28;20261;-73
2022/06/06 13:54:33;;;;;;;1.88;1.63;;;24.10;82.90;;;;;;4992662;28;20551;-73
2022/06/06 13:57:20;;;;;;;1.58;1.48;;;23.90;79.90;;;;;;4991162;28;20329;-73
2022/06/06 13:59:49;;;;;;;1.85;1.52;;;23.90;80.40;;;;;;4991100;28;20177;-73
2022/06/06 14:02:28;;;;;;;1.70;1.60;;;23.70;82.00;;;;;;4991081;28;20207;-73
2022/06/06 14:05:24;;;;;;;2.13;1.50;;;23.50;82.60;;;;;;4990906;28;20208;-73
2022/06/06 14:08:09;;;;;;;2.13;1.63;;;23.40;81.10;;;;;;4991396;28;20176;-73
2022/06/06 14:10:59;;;;;;;3.50;1.70;;;23.20;84.10;;;;;;4991802;28;20626;-73
2022/06/06 14:13:44;;;;;;;1.60;1.50;;;23.00;83.10;;;;;;4986007;28;20550;-73
2022/06/06 14:16:23;;;;;;;2.38;1.73;;;22.80;83.80;;;;;;4991072;28;20226;-73
2022/06/06 14:18:54;;;;;;;2.65;1.90;;;22.60;85.40;;;;;;4991196;28;20684;-73
2022/06/06 14:21:34;;;;;;;5.35;2.20;;;22.60;86.70;;;;;;4991636;28;20177;-73
2022/06/06 14:24:08;;;;;;;2.22;1.88;;;22.40;87.90;;;;;;4991432;28;20200;-73
2022/06/06 14:26:34;;;;;;;4.35;1.85;;;22.40;87.10;;;;;;4991418;28;20179;-73
2022/06/06 14:29:22;;;;;;;1.77;1.50;;;22.40;86.60;;;;;;4990966;28;20194;-73
2022/06/06 14:31:55;;;;;;;4.43;1.98;;;22.40;88.20;;;;;;4991091;28;20168;-73
2022/06/06 14:34:27;;;;;;;1.90;1.70;;;22.40;88.00;;;;;;4991102;28;20224;-73
2022/06/06 14:37:24;;;;;;;1.80;1.70;;;22.30;85.60;;;;;;4991837;28;20187;-73
2022/06/06 14:40:02;;;;;;;2.13;1.60;;;22.30;87.10;;;;;;4990527;28;20269;-73